Nicoya, Costa Rica

11:38 AM CST on March 25, 2017 (GMT -0600)
Daniel Oduber Quiros International | | Change Station

Elev 305 ft 10.60 °N, 85.55 °W | Updated 38 minutes ago

Clear
Clear
91 °F
Feels Like 94 °F
N
9
Wind Variable Wind from ESE

Today
High -- | Low -- °F
--% Chance of Precip.
Yesterday
High -- | Low -- °F
Precip. -- in
Pressure 29.90 in
Visibility 6.2 miles
Clouds Few 3500 ft
Heat Index 94 °F
Dew Point 66 °F
Humidity 43%
Rainfall 0.00 in
Snow Depth Not available.
5:42 AM 5:52 PM
Waning Crescent, 7% visible
METAR MRLB 251700Z 11008KT 9999 FEW035 33/19 A2990 NOSIG
Pressure 29.90 in
Visibility 6.2 miles
Clouds Few 3500 ft
Heat Index 94 °F
Dew Point 66 °F
Humidity 43%
Rainfall 0.00 in
Snow Depth Not available.
5:42 AM 5:52 PM
Waning Crescent, 7% visible
METAR MRLB 251700Z 11008KT 9999 FEW035 33/19 A2990 NOSIG

Get Severe Weather Alerts

Thanks for signing up!

Be on the lookout for a verification email in your inbox.

You'll start receiving the daily forecast at 8 AM.

×

10-Day Weather Forecast

No radar image for this location.
×

Almanac

Astronomy

Mar. 25, 2017 Rise Set
Actual Time
Civil Twilight
Nautical Twilight
Astronomical Twilight
Moon
Length of Visible Light
Length of Day
Tomorrow will be .
, % of the Moon is Illuminated

Today's Extremes

Country Highs Country Lows

Community

WunderPhotos

Upload Photos

1,962,540 photos uploaded!

WunderBlog® & News

Nearby

Air Quality

  Air Quality AQ Index Pollutant
Not available.

Snow Depth

Station Depth Elevation

Earthquake Activity

City Distance Mag. Time & Date
Minimum magnitude displayed is 2.5.

Earthquake Activity

City Distance Mag. Time & Date
Minimum magnitude displayed is 2.5.

Coastal Water Temperatures

Place Temperature

Stations

Nearby Weather Stations

Station Location Temp. Windchill Dew Point Humidity Wind Precip. Elev Updated Type